Time;durP1;ratioP1;P1;durP2;ratioP2;P2;SDS_P1;SDS_P2;PMS_P1;PMS_P2;Temp;Humidity;BMP_temperature;BMP_pressure;BME280_temperature;BME280_humidity;BME280_pressure;Samples;Min_cycle;Max_cycle;Signal;HPM_P1;HPM_P2
2023/02/10 00:00:32;;;;;;;49.25;27.00;;;;;;;-1.36;81.43;99898.81;4137443;28;20647;-85
2023/02/10 00:02:35;;;;;;;48.58;26.65;;;;;;;-1.35;81.28;99901.41;4155396;28;20207;-85
2023/02/10 00:04:39;;;;;;;43.63;26.20;;;;;;;-1.37;81.55;99897.09;4149584;28;20199;-86
2023/02/10 00:06:42;;;;;;;43.05;25.67;;;;;;;-1.39;81.12;99889.41;4153021;28;20206;-85
2023/02/10 00:08:47;;;;;;;46.33;26.27;;;;;;;-1.44;80.35;99894.47;4176293;28;20289;-86
2023/02/10 00:10:52;;;;;;;45.28;25.58;;;;;;;-1.50;80.66;99890.19;4152310;28;20214;-86
2023/02/10 00:12:55;;;;;;;53.28;25.77;;;;;;;-1.51;80.44;99887.63;4157406;28;20585;-86
2023/02/10 00:14:58;;;;;;;42.78;23.85;;;;;;;-1.53;80.81;99885.06;4167882;28;20945;-86
2023/02/10 00:17:01;;;;;;;47.70;26.58;;;;;;;-1.50;80.85;99884.22;4175226;28;20610;-86
2023/02/10 00:19:05;;;;;;;42.75;23.92;;;;;;;-1.54;81.20;99892.72;4152136;28;20207;-86
2023/02/10 00:21:09;;;;;;;43.40;24.48;;;;;;;-1.54;81.20;99885.06;4163933;28;20221;-86
2023/02/10 00:23:12;;;;;;;58.20;29.58;;;;;;;-1.53;81.42;99894.41;4153510;28;20318;-86
2023/02/10 00:25:16;;;;;;;46.60;26.65;;;;;;;-1.57;81.69;99897.81;4154763;28;20211;-87
2023/02/10 00:27:23;;;;;;;45.60;25.33;;;;;;;-1.59;82.28;99899.50;4152363;28;20203;-87
2023/02/10 00:29:27;;;;;;;48.47;26.65;;;;;;;-1.61;81.91;99896.06;4137028;28;20222;-87
2023/02/10 00:31:32;;;;;;;42.88;24.55;;;;;;;-1.68;80.80;99899.44;4136259;28;20267;-86
2023/02/10 00:33:35;;;;;;;43.83;23.83;;;;;;;-1.67;80.78;99901.13;4152644;28;20206;-87
2023/02/10 00:35:38;;;;;;;46.47;26.05;;;;;;;-1.68;81.08;99909.66;4154023;28;20211;-87
2023/02/10 00:37:41;;;;;;;44.97;25.27;;;;;;;-1.70;81.45;99909.66;4157397;28;20238;-86
2023/02/10 00:39:45;;;;;;;42.85;25.15;;;;;;;-1.70;80.98;99912.19;4158283;28;20719;-87
2023/02/10 00:41:48;;;;;;;47.80;25.77;;;;;;;-1.73;81.47;99918.97;4140989;28;20207;-86
2023/02/10 00:43:53;;;;;;;49.08;24.63;;;;;;;-1.73;81.07;99912.19;4142589;28;20258;-87
2023/02/10 00:45:56;;;;;;;45.15;25.55;;;;;;;-1.77;80.94;99905.31;4155391;28;20570;-86
2023/02/10 00:47:59;;;;;;;43.75;24.83;;;;;;;-1.81;81.00;99897.59;4155419;28;20280;-86
2023/02/10 00:50:02;;;;;;;42.38;24.50;;;;;;;-1.84;80.86;99906.09;4160392;28;20198;-86
2023/02/10 00:52:06;;;;;;;46.60;24.30;;;;;;;-1.85;80.91;99904.41;4168473;28;20290;-86
2023/02/10 00:54:09;;;;;;;44.45;25.80;;;;;;;-1.86;80.90;99904.38;4169585;28;20309;-86
2023/02/10 00:56:13;;;;;;;44.05;25.65;;;;;;;-1.81;81.18;99912.94;4157924;28;20211;-86
2023/02/10 00:58:16;;;;;;;45.65;25.05;;;;;;;-1.82;81.22;99914.66;4168744;28;20234;-86
2023/02/10 01:00:21;;;;;;;40.58;24.38;;;;;;;-1.82;81.10;99922.31;4155702;28;20241;-86
2023/02/10 01:02:24;;;;;;;44.95;25.52;;;;;;;-1.86;81.30;99912.91;4145319;28;20238;-86
2023/02/10 01:04:27;;;;;;;44.40;25.30;;;;;;;-1.88;81.65;99921.38;4176404;28;20206;-86
2023/02/10 01:06:30;;;;;;;44.67;25.40;;;;;;;-1.86;81.61;99919.72;4157585;28;20207;-85
2023/02/10 01:08:34;;;;;;;41.97;25.00;;;;;;;-1.86;81.65;99927.38;4138474;28;20208;-86
2023/02/10 01:10:37;;;;;;;42.92;24.40;;;;;;;-1.91;81.99;99930.72;4153910;28;20305;-86
2023/02/10 01:12:40;;;;;;;47.00;25.17;;;;;;;-1.88;81.74;99940.97;4137211;28;20257;-86
2023/02/10 01:14:43;;;;;;;50.75;26.33;;;;;;;-1.90;81.50;99938.41;4171334;28;20238;-86
2023/02/10 01:16:48;;;;;;;45.17;24.63;;;;;;;-1.94;81.02;99936.66;4152509;28;20664;-86
2023/02/10 01:18:51;;;;;;;45.28;24.42;;;;;;;-1.97;81.01;99925.53;4155648;28;20250;-86
2023/02/10 01:20:54;;;;;;;43.22;24.45;;;;;;;-1.98;80.80;99924.69;4156744;28;20244;-86
2023/02/10 01:22:57;;;;;;;42.47;24.75;;;;;;;-2.04;80.81;99924.63;4156191;28;20203;-86
2023/02/10 01:25:00;;;;;;;45.75;24.35;;;;;;;-2.02;81.00;99919.53;4175120;28;20198;-86
2023/02/10 01:27:03;;;;;;;43.70;24.77;;;;;;;-1.96;80.75;99923.00;4171298;28;20206;-86
2023/02/10 01:29:08;;;;;;;43.92;23.95;;;;;;;-1.96;80.35;99917.06;4173518;28;20206;-86
2023/02/10 01:31:15;;;;;;;45.78;25.00;;;;;;;-2.01;81.13;99924.66;4156142;28;20206;-86
2023/02/10 01:33:19;;;;;;;46.25;25.63;;;;;;;-2.06;81.32;99923.78;4160879;28;20211;-86
2023/02/10 01:35:23;;;;;;;40.40;24.48;;;;;;;-2.04;81.69;99927.19;4156848;28;20318;-86
2023/02/10 01:37:28;;;;;;;44.63;23.83;;;;;;;-2.05;82.03;99922.91;4161556;28;20218;-86
2023/02/10 01:39:31;;;;;;;37.08;21.63;;;;;;;-2.04;81.51;99929.75;4157517;28;20234;-85
2023/02/10 01:41:35;;;;;;;43.85;24.35;;;;;;;-2.11;80.54;99915.19;4156307;28;20322;-86
2023/02/10 01:43:56;;;;;;;39.25;22.13;;;;;;;-2.14;80.15;99925.38;4156926;28;20203;-86
2023/02/10 01:46:00;;;;;;;39.92;22.90;;;;;;;-2.16;80.54;99929.63;4159552;28;20301;-86
2023/02/10 01:48:04;;;;;;;38.83;22.83;;;;;;;-2.17;81.02;99924.50;4141843;28;20676;-86
2023/02/10 01:50:09;;;;;;;43.92;23.95;;;;;;;-2.18;81.24;99923.66;4173491;28;20214;-86
2023/02/10 01:52:16;;;;;;;41.58;23.83;;;;;;;-2.18;81.18;99932.97;4175113;28;20230;-86
2023/02/10 01:54:24;;;;;;;43.80;22.98;;;;;;;-2.19;81.51;99923.63;4158269;28;20210;-85
2023/02/10 01:56:27;;;;;;;40.75;22.23;;;;;;;-2.15;81.36;99931.34;4158169;28;20242;-85
2023/02/10 01:58:33;;;;;;;44.17;24.08;;;;;;;-2.17;81.15;99930.44;4172768;28;20229;-85
2023/02/10 02:00:36;;;;;;;42.10;23.27;;;;;;;-2.12;80.85;99926.28;4155090;28;20253;-86
2023/02/10 02:02:40;;;;;;;39.33;23.08;;;;;;;-2.16;81.06;99936.44;4142706;28;20725;-86
2023/02/10 02:04:48;;;;;;;40.28;23.60;;;;;;;-2.17;80.85;99939.81;4174527;28;20208;-86
2023/02/10 02:06:56;;;;;;;41.15;22.45;;;;;;;-2.25;81.04;99938.88;4157380;28;20214;-86
2023/02/10 02:09:01;;;;;;;41.70;23.58;;;;;;;-2.25;80.82;99934.63;4139346;28;20210;-85
2023/02/10 02:11:23;;;;;;;41.05;22.95;;;;;;;-2.26;81.26;99938.00;4141752;28;20254;-86
2023/02/10 02:13:39;;;;;;;44.25;23.40;;;;;;;-2.30;81.22;99933.72;4172893;28;20703;-85
2023/02/10 02:15:47;;;;;;;46.15;23.80;;;;;;;-2.36;81.68;99926.81;4169376;28;20245;-87
2023/02/10 02:17:55;;;;;;;37.70;22.17;;;;;;;-2.35;81.67;99937.06;4135021;28;20214;-85
2023/02/10 02:22:47;;;;;;;42.72;23.85;;;;;;;-2.33;81.73;99946.47;4154985;28;20206;-86
2023/02/10 02:25:16;;;;;;;43.45;24.73;;;;;;;-2.35;81.96;99943.88;4154335;28;20211;-85
2023/02/10 02:27:43;;;;;;;42.67;22.92;;;;;;;-2.33;81.86;99955.78;4136284;28;20207;-86
2023/02/10 02:30:12;;;;;;;42.85;23.40;;;;;;;-2.32;82.09;99960.91;4147983;28;20203;-86
2023/02/10 02:32:18;;;;;;;38.13;22.98;;;;;;;-2.32;82.08;99962.63;4172450;28;20198;-85
2023/02/10 02:34:28;;;;;;;41.60;22.85;;;;;;;-2.31;82.15;99966.91;4134291;28;20274;-86
2023/02/10 02:36:34;;;;;;;39.17;23.23;;;;;;;-2.28;81.86;99964.38;4156524;28;20206;-86
2023/02/10 02:38:39;;;;;;;39.90;23.92;;;;;;;-2.32;81.53;99960.91;4154611;28;20346;-86
2023/02/10 02:40:42;;;;;;;45.08;23.58;;;;;;;-2.34;81.96;99960.06;4140887;28;20207;-87
2023/02/10 02:42:45;;;;;;;43.65;22.58;;;;;;;-2.34;81.52;99960.06;4169774;28;20598;-86
2023/02/10 02:44:52;;;;;;;39.22;21.73;;;;;;;-2.31;81.40;99961.81;4175096;28;20232;-85
2023/02/10 02:47:00;;;;;;;42.20;22.80;;;;;;;-2.34;81.92;99960.06;4156400;28;20202;-86
2023/02/10 02:49:10;;;;;;;40.28;22.38;;;;;;;-2.36;81.81;99957.47;4170333;28;20202;-86
2023/02/10 02:51:17;;;;;;;38.70;22.10;;;;;;;-2.36;81.58;99960.91;4162726;28;20221;-86
2023/02/10 02:53:28;;;;;;;38.25;22.17;;;;;;;-2.40;80.83;99955.72;4171242;28;20202;-86
2023/02/10 02:55:37;;;;;;;38.80;23.13;;;;;;;-2.44;80.87;99961.63;4153539;28;20229;-86
2023/02/10 02:57:47;;;;;;;41.17;23.75;;;;;;;-2.46;80.72;99969.28;4150175;28;20256;-86
2023/02/10 02:59:53;;;;;;;36.97;22.23;;;;;;;-2.44;81.11;99962.47;4174007;28;20264;-86
2023/02/10 03:01:58;;;;;;;37.75;22.50;;;;;;;-2.45;80.56;99960.78;4168828;28;20324;-86
2023/02/10 03:04:02;;;;;;;42.17;21.60;;;;;;;-2.46;80.10;99956.50;4164022;28;20216;-86
2023/02/10 03:06:10;;;;;;;40.60;21.98;;;;;;;-2.46;80.78;99958.22;4151670;28;20998;-85
2023/02/10 03:08:13;;;;;;;41.40;22.70;;;;;;;-2.43;80.78;99960.81;4168291;28;20740;-86
2023/02/10 03:10:16;;;;;;;43.65;21.58;;;;;;;-2.40;80.93;99959.13;4167908;28;20206;-86
2023/02/10 03:12:19;;;;;;;46.33;22.50;;;;;;;-2.42;81.27;99957.38;4154336;28;20207;-86
2023/02/10 03:14:23;;;;;;;42.05;23.23;;;;;;;-2.42;81.56;99968.47;4170404;28;20313;-85
2023/02/10 03:16:26;;;;;;;38.45;22.10;;;;;;;-2.38;81.68;99964.25;4174230;28;20313;-86
2023/02/10 03:18:29;;;;;;;42.22;23.50;;;;;;;-2.36;81.59;99967.69;4169128;28;20265;-86
2023/02/10 03:20:32;;;;;;;43.63;23.67;;;;;;;-2.36;81.60;99972.78;4172833;28;20237;-86
2023/02/10 03:22:39;;;;;;;41.70;23.23;;;;;;;-2.38;82.17;99969.38;4150632;28;20250;-87
2023/02/10 03:24:42;;;;;;;43.28;24.33;;;;;;;-2.38;81.56;99970.22;4138347;28;20215;-86
2023/02/10 03:26:45;;;;;;;41.90;22.92;;;;;;;-2.42;81.13;99965.94;4171587;28;20613;-86
2023/02/10 03:28:48;;;;;;;40.80;22.70;;;;;;;-2.50;80.59;99961.56;4173250;28;20194;-85
2023/02/10 03:30:51;;;;;;;41.17;22.58;;;;;;;-2.52;80.48;99969.19;4171765;28;20202;-85
2023/02/10 03:32:55;;;;;;;37.13;20.85;;;;;;;-2.53;80.81;99961.50;4177328;28;20252;-86
2023/02/10 03:34:58;;;;;;;40.00;23.13;;;;;;;-2.52;81.55;99978.56;4156930;28;20673;-86
2023/02/10 03:37:01;;;;;;;40.80;22.88;;;;;;;-2.50;81.59;99971.75;4153063;28;20649;-86
2023/02/10 03:39:05;;;;;;;41.50;22.50;;;;;;;-2.49;81.00;99970.94;4138252;28;20701;-85
2023/02/10 03:41:09;;;;;;;41.70;22.38;;;;;;;-2.51;81.05;99976.03;4174548;28;20686;-85
2023/02/10 03:43:12;;;;;;;43.33;23.70;;;;;;;-2.50;81.37;99971.75;4154824;28;20202;-86
2023/02/10 03:45:15;;;;;;;37.42;22.83;;;;;;;-2.51;81.34;99980.25;4155472;28;20211;-86
2023/02/10 03:47:18;;;;;;;42.03;23.17;;;;;;;-2.52;81.76;99981.09;4142787;28;20860;-86
2023/02/10 03:49:21;;;;;;;37.20;22.27;;;;;;;-2.53;81.18;99981.94;4174852;28;20230;-86
2023/02/10 03:51:24;;;;;;;37.42;21.77;;;;;;;-2.55;81.29;99978.50;4152202;28;20265;-86
2023/02/10 03:53:28;;;;;;;37.58;21.52;;;;;;;-2.59;81.02;99974.19;4174486;28;20256;-86
2023/02/10 03:55:33;;;;;;;38.55;22.38;;;;;;;-2.57;81.13;99982.72;4143939;28;20231;-86
2023/02/10 03:57:36;;;;;;;35.95;21.17;;;;;;;-2.55;81.21;99991.28;4169350;28;20226;-86
2023/02/10 03:59:42;;;;;;;42.28;23.33;;;;;;;-2.57;80.98;99985.28;4175851;28;20642;-86
2023/02/10 04:01:45;;;;;;;43.25;23.25;;;;;;;-2.59;80.56;99986.97;4152559;28;20215;-86
2023/02/10 04:03:49;;;;;;;39.03;22.70;;;;;;;-2.61;80.61;99986.09;4154139;28;20237;-85
2023/02/10 04:05:52;;;;;;;39.15;22.67;;;;;;;-2.65;80.68;99989.44;4149299;28;20229;-85
2023/02/10 04:07:55;;;;;;;40.75;21.88;;;;;;;-2.65;80.74;99986.88;4154385;28;20202;-86
2023/02/10 04:10:00;;;;;;;39.92;22.05;;;;;;;-2.65;80.50;99980.06;4156079;28;20739;-86
2023/02/10 04:12:05;;;;;;;44.38;23.05;;;;;;;-2.66;80.86;99980.91;4170881;28;20225;-86
2023/02/10 04:14:08;;;;;;;37.25;22.20;;;;;;;-2.65;80.79;99991.97;4152695;28;20223;-85
2023/02/10 04:16:13;;;;;;;43.25;22.90;;;;;;;-2.65;80.77;99986.88;4175739;28;20201;-85
2023/02/10 04:18:16;;;;;;;36.90;21.70;;;;;;;-2.65;80.98;99985.16;4174437;28;20202;-85
2023/02/10 04:20:19;;;;;;;44.40;23.85;;;;;;;-2.64;80.89;99993.72;4140650;28;20263;-86
2023/02/10 04:22:22;;;;;;;41.83;22.83;;;;;;;-2.66;81.29;99986.03;4156254;28;20209;-85
2023/02/10 04:24:26;;;;;;;41.30;22.30;;;;;;;-2.69;81.25;99990.22;4169978;28;20558;-85
2023/02/10 04:26:29;;;;;;;37.40;22.25;;;;;;;-2.72;80.99;99993.59;4176928;28;20602;-86
2023/02/10 04:28:33;;;;;;;41.42;23.38;;;;;;;-2.74;80.81;99986.75;4171955;28;20198;-87
2023/02/10 04:30:37;;;;;;;38.47;21.15;;;;;;;-2.74;80.69;100004.59;4155102;28;20214;-86
2023/02/10 04:32:40;;;;;;;43.20;23.08;;;;;;;-2.76;80.54;100006.28;4175443;28;20654;-86
2023/02/10 04:34:43;;;;;;;39.50;21.77;;;;;;;-2.79;80.40;99996.03;4158304;28;20200;-86
2023/02/10 04:36:46;;;;;;;37.85;22.05;;;;;;;-2.80;80.67;99991.75;4155963;28;20238;-87
2023/02/10 04:38:49;;;;;;;39.85;22.65;;;;;;;-2.79;80.50;100001.16;4159009;28;20206;-86
2023/02/10 04:40:52;;;;;;;41.25;22.05;;;;;;;-2.79;80.41;100001.16;4170815;28;20218;-86
2023/02/10 04:42:55;;;;;;;44.45;23.52;;;;;;;-2.80;80.66;100001.97;4159590;28;20280;-87
2023/02/10 04:45:00;;;;;;;39.60;21.10;;;;;;;-2.82;80.26;100001.94;4157992;28;20210;-86
2023/02/10 04:47:04;;;;;;;41.60;22.88;;;;;;;-2.82;80.36;100009.59;4140686;28;20234;-86
2023/02/10 04:49:07;;;;;;;43.40;23.10;;;;;;;-2.83;80.69;100006.19;4173903;28;20203;-86
2023/02/10 04:51:11;;;;;;;43.75;23.70;;;;;;;-2.85;80.64;100003.59;4143408;28;20200;-86
2023/02/10 04:53:14;;;;;;;39.70;23.77;;;;;;;-2.84;80.67;100009.56;4173686;28;20206;-86
2023/02/10 04:55:17;;;;;;;40.05;22.90;;;;;;;-2.87;81.15;100012.94;4157200;28;20206;-86
2023/02/10 04:57:20;;;;;;;44.70;23.10;;;;;;;-2.88;80.32;100008.66;4159178;28;20206;-87
2023/02/10 04:59:23;;;;;;;43.53;22.05;;;;;;;-2.82;80.17;100011.31;4153903;28;20214;-86
2023/02/10 05:01:28;;;;;;;41.35;22.92;;;;;;;-2.84;80.48;100010.44;4154045;28;20614;-88
2023/02/10 05:03:31;;;;;;;42.83;23.90;;;;;;;-2.84;80.45;100023.19;4143438;28;20335;-87
2023/02/10 05:05:34;;;;;;;46.03;23.30;;;;;;;-2.82;81.07;100018.97;4155512;28;20607;-87
2023/02/10 05:07:37;;;;;;;45.28;23.58;;;;;;;-2.84;80.37;100018.09;4156536;28;20253;-86
2023/02/10 05:09:42;;;;;;;38.50;23.45;;;;;;;-2.90;80.32;100015.44;4154087;28;20203;-86
2023/02/10 05:11:46;;;;;;;40.92;22.23;;;;;;;-2.91;80.14;100008.63;4140058;28;20615;-86
2023/02/10 05:13:49;;;;;;;39.30;22.98;;;;;;;-2.87;80.46;100015.50;4172328;28;20243;-86
2023/02/10 05:15:52;;;;;;;41.15;24.20;;;;;;;-2.90;80.45;100023.09;4155043;28;20199;-86
2023/02/10 05:17:56;;;;;;;44.08;23.27;;;;;;;-2.91;80.80;100018.81;4160204;28;20646;-89
2023/02/10 05:19:59;;;;;;;43.05;23.05;;;;;;;-2.88;80.92;100023.97;4178467;28;20261;-86
2023/02/10 05:22:02;;;;;;;47.33;24.95;;;;;;;-2.90;80.81;100020.56;4156826;28;20211;-86
2023/02/10 05:24:06;;;;;;;46.83;23.85;;;;;;;-2.90;80.56;100017.13;4159743;28;20265;-87
2023/02/10 05:26:09;;;;;;;47.47;23.48;;;;;;;-2.94;80.37;100023.03;4175339;28;20210;-86
2023/02/10 05:28:12;;;;;;;44.35;23.27;;;;;;;-2.92;80.63;100023.91;4176461;28;20724;-86
2023/02/10 05:30:15;;;;;;;43.50;23.58;;;;;;;-2.96;80.29;100029.78;4138928;28;20200;-87
2023/02/10 05:32:18;;;;;;;44.88;24.63;;;;;;;-2.97;80.09;100038.28;4159826;28;20691;-86
2023/02/10 05:34:23;;;;;;;42.65;23.85;;;;;;;-3.04;79.96;100032.22;4158902;28;20207;-85
2023/02/10 05:36:26;;;;;;;39.45;22.40;;;;;;;-3.05;79.64;100039.84;4157809;28;20214;-86
2023/02/10 05:38:30;;;;;;;40.22;22.13;;;;;;;-3.09;79.89;100033.00;4160013;28;20199;-86
2023/02/10 05:40:33;;;;;;;47.03;23.48;;;;;;;-3.11;79.20;100040.63;4158465;28;20249;-86
2023/02/10 05:42:36;;;;;;;42.22;22.58;;;;;;;-3.14;79.94;100035.47;4139034;28;20207;-86
2023/02/10 05:44:39;;;;;;;40.15;21.42;;;;;;;-3.17;79.73;100037.97;4142837;28;20231;-86
2023/02/10 05:46:42;;;;;;;40.75;23.55;;;;;;;-3.17;79.86;100034.56;4152684;28;20207;-86
2023/02/10 05:48:45;;;;;;;43.47;23.65;;;;;;;-3.18;79.80;100038.78;4156323;28;20624;-86
2023/02/10 05:50:52;;;;;;;44.75;23.73;;;;;;;-3.13;80.10;100051.63;4156668;28;20257;-86
2023/02/10 05:52:55;;;;;;;44.83;23.55;;;;;;;-3.15;79.65;100053.28;4171437;28;20203;-86
2023/02/10 05:54:58;;;;;;;42.65;22.77;;;;;;;-3.14;79.65;100055.88;4142546;28;20208;-86
2023/02/10 05:57:02;;;;;;;44.17;23.35;;;;;;;-3.15;79.18;100054.13;4161322;28;20207;-85
2023/02/10 05:59:05;;;;;;;45.55;24.55;;;;;;;-3.13;79.99;100055.03;4140721;28;20203;-86
2023/02/10 06:01:10;;;;;;;48.05;24.08;;;;;;;-3.15;80.11;100059.25;4175030;28;20225;-86
2023/02/10 06:03:13;;;;;;;46.58;24.60;;;;;;;-3.15;80.16;100056.69;4154080;28;21903;-86
2023/02/10 06:05:16;;;;;;;41.35;22.42;;;;;;;-3.14;80.01;100053.31;4152160;28;20210;-86
2023/02/10 06:07:21;;;;;;;47.20;24.27;;;;;;;-3.12;79.94;100064.38;4171804;28;20607;-89
2023/02/10 06:09:26;;;;;;;44.35;23.70;;;;;;;-3.17;79.63;100060.91;4137329;28;20303;-87
2023/02/10 06:11:29;;;;;;;48.78;24.17;;;;;;;-3.19;79.71;100067.69;4156376;28;24602;-86
2023/02/10 06:13:32;;;;;;;40.70;23.13;;;;;;;-3.19;80.00;100065.16;4173372;28;20604;-85
2023/02/10 06:15:35;;;;;;;48.28;24.25;;;;;;;-3.18;79.85;100079.59;4157720;28;20238;-86
2023/02/10 06:17:41;;;;;;;40.25;22.75;;;;;;;-3.17;80.20;100072.81;4143905;28;20218;-86
2023/02/10 06:19:44;;;;;;;45.47;24.00;;;;;;;-3.15;80.40;100079.66;4160266;28;20710;-86
2023/02/10 06:21:48;;;;;;;40.75;23.02;;;;;;;-3.20;80.42;100075.31;4171077;28;20231;-86
2023/02/10 06:23:52;;;;;;;47.05;24.40;;;;;;;-3.18;80.67;100081.28;4158391;28;20203;-87
2023/02/10 06:25:57;;;;;;;43.75;22.85;;;;;;;-3.18;80.39;100084.69;4152610;28;20206;-84
2023/02/10 06:28:00;;;;;;;50.67;24.95;;;;;;;-3.19;80.45;100089.75;4153752;28;20280;-86
2023/02/10 06:30:04;;;;;;;48.17;23.60;;;;;;;-3.21;80.08;100083.78;4152685;28;20298;-85
2023/02/10 06:32:07;;;;;;;46.55;24.15;;;;;;;-3.21;79.77;100091.44;4152042;28;20213;-85
2023/02/10 06:34:10;;;;;;;47.22;24.48;;;;;;;-3.22;79.69;100093.13;4177516;28;20613;-84
2023/02/10 06:36:13;;;;;;;43.03;24.45;;;;;;;-3.20;79.84;100091.47;4144086;28;20208;-84
2023/02/10 06:38:16;;;;;;;43.47;23.92;;;;;;;-3.18;79.97;100094.88;4159788;28;20659;-84
2023/02/10 06:40:21;;;;;;;44.33;23.63;;;;;;;-3.17;79.80;100096.63;4141322;28;20216;-84
2023/02/10 06:42:24;;;;;;;43.42;23.52;;;;;;;-3.20;79.64;100106.75;4172270;28;20228;-85
2023/02/10 06:44:28;;;;;;;50.55;24.73;;;;;;;-3.20;79.40;100105.91;4150436;28;20218;-85
2023/02/10 06:46:31;;;;;;;48.28;26.05;;;;;;;-3.20;79.62;100104.22;4159016;28;20206;-85
2023/02/10 06:48:34;;;;;;;50.13;23.77;;;;;;;-3.18;79.91;100114.44;4171665;28;20209;-83
2023/02/10 06:50:39;;;;;;;49.25;26.25;;;;;;;-3.15;79.67;100117.03;4169076;28;20218;-83
2023/02/10 06:52:42;;;;;;;42.78;23.65;;;;;;;-3.11;80.23;100127.34;4155590;28;20211;-83
2023/02/10 06:54:45;;;;;;;47.00;25.65;;;;;;;-3.09;79.94;100120.56;4151003;28;20214;-84
2023/02/10 06:56:50;;;;;;;47.22;23.20;;;;;;;-3.09;80.08;100129.91;4175109;28;20670;-84
2023/02/10 06:58:53;;;;;;;46.13;25.33;;;;;;;-3.05;79.85;100129.09;4177506;28;20206;-84
2023/02/10 07:00:56;;;;;;;45.83;24.77;;;;;;;-2.98;79.41;100133.50;4154474;28;20579;-84
2023/02/10 07:02:59;;;;;;;52.33;25.10;;;;;;;-2.91;79.54;100136.19;4169511;28;20221;-84
2023/02/10 07:05:04;;;;;;;47.17;26.38;;;;;;;-2.86;79.44;100133.72;4159450;28;20199;-84
2023/02/10 07:07:08;;;;;;;52.63;26.80;;;;;;;-2.79;79.71;100131.28;4145082;28;20717;-85
2023/02/10 07:09:11;;;;;;;45.60;25.60;;;;;;;-2.72;79.71;100133.97;4143457;28;20239;-84
2023/02/10 07:11:14;;;;;;;47.15;26.02;;;;;;;-2.65;79.62;100134.91;4158112;28;20558;-86
2023/02/10 07:13:19;;;;;;;47.00;27.20;;;;;;;-2.58;79.64;100137.59;4160525;28;20655;-82
2023/02/10 07:15:22;;;;;;;46.53;25.48;;;;;;;-2.50;79.78;100138.56;4142132;28;20212;-84
2023/02/10 07:17:26;;;;;;;52.53;25.75;;;;;;;-2.43;79.77;100142.94;4158729;28;20276;-84
2023/02/10 07:19:30;;;;;;;50.22;27.13;;;;;;;-2.35;80.03;100132.84;4176213;28;20360;-85
2023/02/10 07:21:33;;;;;;;50.60;26.92;;;;;;;-2.25;79.76;100140.66;4143259;28;20231;-84
2023/02/10 07:23:36;;;;;;;50.92;27.30;;;;;;;-2.15;80.12;100140.81;4159687;28;20868;-85
2023/02/10 07:25:39;;;;;;;48.72;27.63;;;;;;;-2.02;79.98;100144.38;4177787;28;20210;-84
2023/02/10 07:27:43;;;;;;;47.75;26.17;;;;;;;-1.90;79.52;100144.56;4154398;28;20211;-84
2023/02/10 07:29:48;;;;;;;43.40;25.10;;;;;;;-1.82;79.17;100148.91;4161948;28;20281;-84
2023/02/10 07:31:51;;;;;;;44.95;26.80;;;;;;;-1.72;78.52;100153.31;4136517;28;20211;-84
2023/02/10 07:33:54;;;;;;;49.72;26.75;;;;;;;-1.62;78.41;100150.88;4160093;28;20333;-84
2023/02/10 07:36:00;;;;;;;48.65;27.55;;;;;;;-1.56;77.77;100145.84;4174202;28;20566;-84
2023/02/10 07:38:03;;;;;;;51.35;25.90;;;;;;;-1.50;78.17;100155.28;4158165;28;20203;-85
2023/02/10 07:40:07;;;;;;;49.53;28.00;;;;;;;-1.49;78.38;100159.56;4160751;28;20210;-84
2023/02/10 07:42:10;;;;;;;48.22;26.73;;;;;;;-1.45;78.10;100154.50;4144130;28;20227;-85
2023/02/10 07:44:33;;;;;;;52.22;26.77;;;;;;;-1.32;78.32;100161.47;4152929;28;20205;-84
2023/02/10 07:46:38;;;;;;;48.90;27.50;;;;;;;-1.21;77.69;100160.75;4175077;28;20674;-84
2023/02/10 07:48:41;;;;;;;47.47;27.30;;;;;;;-1.03;78.23;100154.97;4159114;28;20202;-84
2023/02/10 07:50:44;;;;;;;48.55;25.75;;;;;;;-0.91;78.16;100150.81;4156555;28;20218;-84
2023/02/10 07:52:48;;;;;;;49.40;27.02;;;;;;;-0.80;78.22;100162.00;4143704;28;20638;-85
2023/02/10 07:54:51;;;;;;;45.13;26.45;;;;;;;-0.71;78.42;100159.53;4160059;28;20714;-84
2023/02/10 07:56:55;;;;;;;45.15;27.35;;;;;;;-0.64;77.28;100159.59;4148630;28;20598;-84
2023/02/10 07:58:58;;;;;;;49.78;28.80;;;;;;;-0.58;77.40;100158.81;4170948;28;20209;-84
2023/02/10 08:01:06;;;;;;;73.65;35.85;;;;;;;-0.46;77.17;100168.28;4142726;28;20234;-85
2023/02/10 08:03:12;;;;;;;124.82;45.97;;;;;;;-0.32;76.61;100161.56;4156708;28;20249;-85
2023/02/10 08:05:16;;;;;;;409.85;149.90;;;;;;;-0.19;76.24;100157.41;4140262;28;20588;-84
2023/02/10 08:07:19;;;;;;;52.00;28.60;;;;;;;-0.08;76.90;100168.59;4151068;28;20208;-84
2023/02/10 08:09:22;;;;;;;52.70;30.30;;;;;;;-0.01;75.95;100172.91;4168626;28;20210;-85
2023/02/10 08:11:25;;;;;;;71.93;35.67;;;;;;;0.05;75.75;100174.66;4121114;28;1103585;-84
2023/02/10 08:13:29;;;;;;;54.97;31.30;;;;;;;0.04;75.42;100179.78;4175105;28;20789;-84
2023/02/10 08:15:32;;;;;;;61.95;37.03;;;;;;;0.05;75.63;100178.94;4167423;28;20202;-85
2023/02/10 08:17:36;;;;;;;60.97;32.97;;;;;;;0.18;76.22;100173.00;4173364;28;20213;-84
2023/02/10 08:19:41;;;;;;;59.60;31.30;;;;;;;0.27;76.16;100175.63;4155030;28;20301;-84
2023/02/10 08:21:44;;;;;;;56.85;31.23;;;;;;;0.34;75.62;100177.38;4174090;28;20209;-85
2023/02/10 08:23:54;;;;;;;46.28;27.67;;;;;;;0.35;75.61;100179.13;4170126;28;20217;-83
2023/02/10 08:25:58;;;;;;;52.08;27.75;;;;;;;0.34;75.24;100179.94;4172311;28;20603;-85
2023/02/10 08:28:01;;;;;;;46.42;26.35;;;;;;;0.44;76.18;100182.56;4175476;28;20214;-85
2023/02/10 08:30:05;;;;;;;49.75;28.00;;;;;;;0.54;75.71;100185.19;4149620;28;20709;-85
2023/02/10 08:32:09;;;;;;;50.90;27.27;;;;;;;0.59;75.65;100188.63;4153688;28;20225;-87
2023/02/10 08:34:16;;;;;;;49.83;27.50;;;;;;;0.65;75.09;100186.09;4150386;28;20203;-86
2023/02/10 08:36:22;;;;;;;49.92;27.23;;;;;;;0.75;75.50;100197.25;4168872;28;20198;-85
2023/02/10 08:38:25;;;;;;;51.63;29.90;;;;;;;0.88;75.08;100201.59;4153912;28;20608;-85
2023/02/10 08:40:28;;;;;;;47.22;28.50;;;;;;;0.96;75.22;100205.88;4171806;28;20206;-86
2023/02/10 08:42:32;;;;;;;46.55;26.80;;;;;;;1.11;75.16;100195.63;4153408;28;20224;-86
2023/02/10 08:44:36;;;;;;;52.97;29.63;;;;;;;1.26;74.86;100193.97;4169169;28;20195;-86
2023/02/10 08:46:39;;;;;;;51.05;29.60;;;;;;;1.31;75.92;100194.84;4140506;28;20212;-86
2023/02/10 08:48:42;;;;;;;52.03;30.50;;;;;;;1.48;75.64;100199.13;4154775;28;20222;-87
2023/02/10 08:50:45;;;;;;;53.60;31.38;;;;;;;1.55;74.99;100202.59;4139494;28;20192;-86
2023/02/10 08:52:50;;;;;;;50.95;30.75;;;;;;;1.63;74.61;100201.72;4144335;28;20211;-87
2023/02/10 08:54:53;;;;;;;50.10;30.10;;;;;;;1.67;75.48;100200.88;4155633;28;20207;-87
2023/02/10 08:56:56;;;;;;;54.30;33.55;;;;;;;1.84;74.94;100204.31;4155460;28;20299;-86
2023/02/10 08:58:59;;;;;;;56.65;35.05;;;;;;;1.98;74.67;100203.41;4149935;28;20204;-87
2023/02/10 09:01:10;;;;;;;60.65;35.30;;;;;;;2.14;74.22;100202.56;4138666;28;20211;-87
2023/02/10 09:03:14;;;;;;;63.70;36.55;;;;;;;2.26;74.59;100209.41;4140157;28;20228;-87
2023/02/10 09:05:18;;;;;;;60.47;32.58;;;;;;;2.40;74.55;100205.94;4160824;28;20734;-87
2023/02/10 09:07:22;;;;;;;56.30;34.30;;;;;;;2.50;74.47;100213.63;4173877;28;20484;-87
2023/02/10 09:09:27;;;;;;;48.50;29.25;;;;;;;2.57;74.48;100210.19;4146623;28;20676;-87
2023/02/10 09:11:30;;;;;;;53.70;32.55;;;;;;;2.68;75.63;100208.44;4174849;28;20214;-87
2023/02/10 09:13:33;;;;;;;51.50;31.88;;;;;;;2.76;75.68;100206.66;4146181;28;20224;-87
2023/02/10 09:15:38;;;;;;;53.53;31.70;;;;;;;2.87;76.76;100213.50;4143780;28;20614;-88
2023/02/10 09:17:41;;;;;;;50.10;30.52;;;;;;;3.04;77.10;100219.44;4160806;28;20211;-87
2023/02/10 09:19:44;;;;;;;52.80;30.55;;;;;;;3.14;76.11;100215.09;4155535;28;20222;-88
2023/02/10 09:21:47;;;;;;;69.82;41.28;;;;;;;3.18;74.85;100209.06;4140953;28;20226;-87
2023/02/10 09:23:51;;;;;;;66.32;38.75;;;;;;;3.31;74.89;100220.16;4142374;28;20730;-88
2023/02/10 09:25:55;;;;;;;70.05;39.15;;;;;;;3.41;73.98;100221.81;4155029;28;20666;-87
2023/02/10 09:27:59;;;;;;;51.45;31.98;;;;;;;3.53;75.46;100223.44;4157525;28;20207;-87
2023/02/10 09:30:02;;;;;;;69.07;41.63;;;;;;;3.63;74.62;100222.53;4158525;28;20210;-87
2023/02/10 09:32:05;;;;;;;70.32;38.45;;;;;;;3.64;73.96;100224.22;4156054;28;20214;-88